Flugplatz Frankfurt (Oder) Gronenfelde (UL)

Hier findest Du alle Informationen zum Flugplatz Frankfurt (Oder) Gronenfelde (UL).

Informationen für Piloten zum Flugplatz Frankfurt (Oder) Gronenfelde

Hier findest Du alle relevanten Informationen, die Du als Pilot benötigst, um Frankfurt (Oder) Gronenfelde anzufliegen.

Flugplatz: Frankfurt (Oder) Gronenfelde ICAO-Code: UL Flugplatz
Frequenz Turm: 120.975 Mhz GAFOR Gebiet: -
Frequenz Ground: 120.975 Mhz Mogas: nein
Platzrunde: S 0 ft Landegebühr: 5 €
Platzhöhe: Sunrise: 02:44 Uhr UTC
Pisten: 12/30 - 490 m x 20 m, GRAS Sunset: 19:14 Uhr UTC

Flugwetter am Flugplatz Frankfurt (Oder) Gronenfelde

Die METAR Information stammen aus EDDB (66.06 km entfernt).

METAR Code:
2020/05/12 16:20
EDDB 121620Z 24010KT 220V280 9999 SCT048 11/01 Q1015 NOSIG

Flugschulen am Flugplatz Frankfurt (Oder) Gronenfelde

Am Flugplatz Frankfurt (Oder) Gronenfelde gibt es leider keine Flugschule.

Benachbarte Flugplätze und Flugschulen

Es gibt 7 weitere Flugplätze in einem Umkreis von 50 km um den Flugplatz Frankfurt (Oder) Gronenfelde.

Jetzt anmelden

Passwort vergessen

Umfrage Archiv

Wären Rettungsgeräte keine Pflicht mehr, würdet Ihr Euer UL trotzdem mit einem ausstatten?

Ja
79.5 %
Nein
20.5 %
Stimmen: 117 | Diskussion
Anzeige: Roland Aircraft
Statistik Alle Mitglieder

Aktuell sind 38 Besucher online, davon 2 Mitglieder und 36 Gäste.


Mitglieder online:
Clumsy  Eldim 

Anzeige: VFR Sprechfunk Simulator


Anzeige: Pocket FMS